sensor_id;sensor_type;location;lat;lon;timestamp;P1;durP1;ratioP1;P2;durP2;ratioP2
15814;SDS011;8008;50.024;8.172;2024-03-08T04:02:22;19.60;;;10.37;;
15814;SDS011;8008;50.024;8.172;2024-03-08T04:04:52;18.00;;;10.30;;
15814;SDS011;8008;50.024;8.172;2024-03-08T04:07:21;22.47;;;11.17;;
15814;SDS011;8008;50.024;8.172;2024-03-08T04:09:48;22.83;;;11.07;;
15814;SDS011;8008;50.024;8.172;2024-03-08T04:12:16;20.97;;;11.30;;
15814;SDS011;8008;50.024;8.172;2024-03-08T04:14:44;24.17;;;11.47;;
15814;SDS011;8008;50.024;8.172;2024-03-08T04:17:12;21.73;;;11.27;;
15814;SDS011;8008;50.024;8.172;2024-03-08T04:19:42;20.43;;;10.70;;
15814;SDS011;8008;50.024;8.172;2024-03-08T04:22:10;18.43;;;10.60;;
15814;SDS011;8008;50.024;8.172;2024-03-08T04:24:38;20.93;;;11.20;;
15814;SDS011;8008;50.024;8.172;2024-03-08T04:27:06;20.13;;;10.50;;
15814;SDS011;8008;50.024;8.172;2024-03-08T04:29:35;18.23;;;10.77;;
15814;SDS011;8008;50.024;8.172;2024-03-08T04:32:04;24.30;;;11.53;;
15814;SDS011;8008;50.024;8.172;2024-03-08T04:34:33;19.03;;;10.57;;
15814;SDS011;8008;50.024;8.172;2024-03-08T04:37:02;19.17;;;10.57;;
15814;SDS011;8008;50.024;8.172;2024-03-08T04:39:31;21.03;;;10.63;;
15814;SDS011;8008;50.024;8.172;2024-03-08T04:42:00;20.87;;;10.80;;
15814;SDS011;8008;50.024;8.172;2024-03-08T04:44:32;23.20;;;11.97;;
15814;SDS011;8008;50.024;8.172;2024-03-08T04:47:00;20.73;;;11.23;;
15814;SDS011;8008;50.024;8.172;2024-03-08T04:49:28;26.00;;;11.17;;
15814;SDS011;8008;50.024;8.172;2024-03-08T04:51:56;21.83;;;10.53;;
15814;SDS011;8008;50.024;8.172;2024-03-08T04:54:25;23.37;;;11.07;;
15814;SDS011;8008;50.024;8.172;2024-03-08T04:56:53;22.37;;;11.73;;
15814;SDS011;8008;50.024;8.172;2024-03-08T04:59:21;22.90;;;11.60;;
15814;SDS011;8008;50.024;8.172;2024-03-08T05:01:49;22.87;;;11.80;;
15814;SDS011;8008;50.024;8.172;2024-03-08T05:04:17;22.13;;;11.37;;
15814;SDS011;8008;50.024;8.172;2024-03-08T05:06:45;23.50;;;10.70;;
15814;SDS011;8008;50.024;8.172;2024-03-08T05:09:13;24.20;;;11.57;;
15814;SDS011;8008;50.024;8.172;2024-03-08T05:11:44;21.80;;;10.93;;
15814;SDS011;8008;50.024;8.172;2024-03-08T05:14:13;20.70;;;10.63;;
15814;SDS011;8008;50.024;8.172;2024-03-08T05:16:43;19.53;;;10.87;;
15814;SDS011;8008;50.024;8.172;2024-03-08T05:19:15;20.03;;;10.73;;
15814;SDS011;8008;50.024;8.172;2024-03-08T05:21:44;22.37;;;11.00;;
15814;SDS011;8008;50.024;8.172;2024-03-08T05:24:12;20.07;;;11.13;;
15814;SDS011;8008;50.024;8.172;2024-03-08T05:26:41;20.80;;;11.27;;
15814;SDS011;8008;50.024;8.172;2024-03-08T05:29:11;20.30;;;10.47;;
15814;SDS011;8008;50.024;8.172;2024-03-08T05:31:43;21.23;;;10.70;;
15814;SDS011;8008;50.024;8.172;2024-03-08T05:34:14;22.83;;;11.83;;
15814;SDS011;8008;50.024;8.172;2024-03-08T05:36:42;23.77;;;11.67;;
15814;SDS011;8008;50.024;8.172;2024-03-08T05:39:11;20.60;;;11.40;;
15814;SDS011;8008;50.024;8.172;2024-03-08T05:41:40;22.90;;;11.23;;
15814;SDS011;8008;50.024;8.172;2024-03-08T05:44:08;21.33;;;11.50;;
15814;SDS011;8008;50.024;8.172;2024-03-08T05:46:38;22.07;;;12.00;;
15814;SDS011;8008;50.024;8.172;2024-03-08T05:49:07;24.03;;;11.90;;
15814;SDS011;8008;50.024;8.172;2024-03-08T05:51:37;21.03;;;11.70;;
15814;SDS011;8008;50.024;8.172;2024-03-08T05:54:06;26.30;;;12.50;;
15814;SDS011;8008;50.024;8.172;2024-03-08T05:56:37;22.17;;;11.73;;
15814;SDS011;8008;50.024;8.172;2024-03-08T05:59:07;25.93;;;11.40;;
15814;SDS011;8008;50.024;8.172;2024-03-08T06:01:36;23.97;;;12.30;;
15814;SDS011;8008;50.024;8.172;2024-03-08T06:04:07;25.50;;;12.10;;
15814;SDS011;8008;50.024;8.172;2024-03-08T06:06:35;24.17;;;12.63;;
15814;SDS011;8008;50.024;8.172;2024-03-08T06:09:04;23.33;;;11.80;;
15814;SDS011;8008;50.024;8.172;2024-03-08T06:11:37;24.73;;;12.67;;
15814;SDS011;8008;50.024;8.172;2024-03-08T06:14:04;25.27;;;12.20;;
15814;SDS011;8008;50.024;8.172;2024-03-08T06:16:33;27.67;;;12.40;;
15814;SDS011;8008;50.024;8.172;2024-03-08T06:19:03;23.43;;;11.60;;
15814;SDS011;8008;50.024;8.172;2024-03-08T06:21:32;23.47;;;11.90;;
15814;SDS011;8008;50.024;8.172;2024-03-08T06:24:00;22.73;;;12.53;;
15814;SDS011;8008;50.024;8.172;2024-03-08T06:26:28;25.03;;;12.13;;
15814;SDS011;8008;50.024;8.172;2024-03-08T06:28:57;24.80;;;12.20;;
15814;SDS011;8008;50.024;8.172;2024-03-08T06:31:25;25.23;;;12.50;;
15814;SDS011;8008;50.024;8.172;2024-03-08T06:33:53;25.00;;;12.43;;
15814;SDS011;8008;50.024;8.172;2024-03-08T06:36:24;24.67;;;12.73;;
15814;SDS011;8008;50.024;8.172;2024-03-08T06:38:52;23.27;;;11.40;;
15814;SDS011;8008;50.024;8.172;2024-03-08T06:41:21;27.10;;;12.07;;
15814;SDS011;8008;50.024;8.172;2024-03-08T06:43:49;22.93;;;12.60;;
15814;SDS011;8008;50.024;8.172;2024-03-08T06:46:18;24.00;;;12.50;;
15814;SDS011;8008;50.024;8.172;2024-03-08T06:48:47;25.63;;;12.97;;
15814;SDS011;8008;50.024;8.172;2024-03-08T06:51:16;23.97;;;12.37;;
15814;SDS011;8008;50.024;8.172;2024-03-08T06:53:46;25.80;;;12.87;;
15814;SDS011;8008;50.024;8.172;2024-03-08T06:56:15;23.27;;;11.57;;
15814;SDS011;8008;50.024;8.172;2024-03-08T06:58:43;26.27;;;12.20;;
15814;SDS011;8008;50.024;8.172;2024-03-08T07:01:11;22.93;;;11.80;;
15814;SDS011;8008;50.024;8.172;2024-03-08T07:03:41;22.47;;;12.53;;
15814;SDS011;8008;50.024;8.172;2024-03-08T07:06:10;23.70;;;12.63;;
15814;SDS011;8008;50.024;8.172;2024-03-08T07:08:40;23.67;;;12.40;;
15814;SDS011;8008;50.024;8.172;2024-03-08T07:11:13;23.00;;;12.10;;
15814;SDS011;8008;50.024;8.172;2024-03-08T07:13:44;24.53;;;12.40;;
15814;SDS011;8008;50.024;8.172;2024-03-08T07:16:12;26.23;;;12.83;;
15814;SDS011;8008;50.024;8.172;2024-03-08T07:18:40;24.33;;;12.53;;
15814;SDS011;8008;50.024;8.172;2024-03-08T07:21:10;24.67;;;12.57;;
15814;SDS011;8008;50.024;8.172;2024-03-08T07:23:38;25.60;;;13.23;;
15814;SDS011;8008;50.024;8.172;2024-03-08T07:26:31;21.47;;;11.90;;
15814;SDS011;8008;50.024;8.172;2024-03-08T07:28:59;21.93;;;12.53;;
15814;SDS011;8008;50.024;8.172;2024-03-08T07:31:27;23.13;;;12.03;;
15814;SDS011;8008;50.024;8.172;2024-03-08T07:34:04;24.40;;;12.37;;
15814;SDS011;8008;50.024;8.172;2024-03-08T07:36:33;24.27;;;12.50;;
15814;SDS011;8008;50.024;8.172;2024-03-08T07:39:02;23.00;;;12.37;;
15814;SDS011;8008;50.024;8.172;2024-03-08T07:41:35;23.57;;;12.30;;
15814;SDS011;8008;50.024;8.172;2024-03-08T07:44:03;25.87;;;12.47;;
15814;SDS011;8008;50.024;8.172;2024-03-08T07:46:31;23.43;;;11.67;;
15814;SDS011;8008;50.024;8.172;2024-03-08T07:49:00;21.77;;;11.87;;
15814;SDS011;8008;50.024;8.172;2024-03-08T07:51:29;23.33;;;12.10;;
15814;SDS011;8008;50.024;8.172;2024-03-08T07:53:57;27.30;;;13.13;;
15814;SDS011;8008;50.024;8.172;2024-03-08T07:56:26;22.23;;;11.97;;
15814;SDS011;8008;50.024;8.172;2024-03-08T07:58:55;22.83;;;12.10;;
15814;SDS011;8008;50.024;8.172;2024-03-08T08:01:24;25.80;;;12.43;;
15814;SDS011;8008;50.024;8.172;2024-03-08T08:03:52;24.10;;;12.43;;
15814;SDS011;8008;50.024;8.172;2024-03-08T08:06:19;22.37;;;12.43;;
15814;SDS011;8008;50.024;8.172;2024-03-08T08:08:48;23.33;;;11.87;;
15814;SDS011;8008;50.024;8.172;2024-03-08T08:11:16;23.37;;;12.00;;
15814;SDS011;8008;50.024;8.172;2024-03-08T08:13:44;21.53;;;11.93;;
15814;SDS011;8008;50.024;8.172;2024-03-08T08:16:13;25.17;;;12.23;;
15814;SDS011;8008;50.024;8.172;2024-03-08T08:18:41;25.80;;;12.27;;
15814;SDS011;8008;50.024;8.172;2024-03-08T08:21:10;23.90;;;11.93;;
15814;SDS011;8008;50.024;8.172;2024-03-08T08:23:38;22.73;;;12.27;;
15814;SDS011;8008;50.024;8.172;2024-03-08T08:26:06;23.47;;;12.00;;
15814;SDS011;8008;50.024;8.172;2024-03-08T08:28:34;23.03;;;12.30;;
15814;SDS011;8008;50.024;8.172;2024-03-08T08:31:02;22.20;;;12.33;;
15814;SDS011;8008;50.024;8.172;2024-03-08T08:33:32;23.30;;;12.07;;
15814;SDS011;8008;50.024;8.172;2024-03-08T08:36:01;25.47;;;12.70;;
15814;SDS011;8008;50.024;8.172;2024-03-08T08:38:29;21.20;;;12.10;;
15814;SDS011;8008;50.024;8.172;2024-03-08T08:40:58;23.53;;;11.73;;
15814;SDS011;8008;50.024;8.172;2024-03-08T08:43:28;23.10;;;12.27;;
15814;SDS011;8008;50.024;8.172;2024-03-08T08:45:56;20.70;;;12.00;;
15814;SDS011;8008;50.024;8.172;2024-03-08T08:48:24;23.83;;;11.97;;
15814;SDS011;8008;50.024;8.172;2024-03-08T08:50:55;21.27;;;11.77;;
15814;SDS011;8008;50.024;8.172;2024-03-08T08:53:23;21.60;;;12.10;;
15814;SDS011;8008;50.024;8.172;2024-03-08T08:55:51;20.27;;;10.63;;
15814;SDS011;8008;50.024;8.172;2024-03-08T08:58:20;20.80;;;11.53;;
15814;SDS011;8008;50.024;8.172;2024-03-08T09:00:48;23.13;;;12.07;;
15814;SDS011;8008;50.024;8.172;2024-03-08T09:03:18;26.57;;;12.13;;
15814;SDS011;8008;50.024;8.172;2024-03-08T09:05:46;22.10;;;12.27;;
15814;SDS011;8008;50.024;8.172;2024-03-08T09:08:16;22.43;;;12.37;;
15814;SDS011;8008;50.024;8.172;2024-03-08T09:10:44;20.30;;;11.67;;
15814;SDS011;8008;50.024;8.172;2024-03-08T09:13:17;20.20;;;11.80;;
15814;SDS011;8008;50.024;8.172;2024-03-08T09:15:57;23.30;;;12.40;;
15814;SDS011;8008;50.024;8.172;2024-03-08T09:18:25;20.67;;;11.43;;
15814;SDS011;8008;50.024;8.172;2024-03-08T09:20:53;22.13;;;11.63;;
15814;SDS011;8008;50.024;8.172;2024-03-08T09:23:22;19.00;;;11.10;;
15814;SDS011;8008;50.024;8.172;2024-03-08T09:25:53;21.33;;;11.30;;
15814;SDS011;8008;50.024;8.172;2024-03-08T09:28:21;21.77;;;11.50;;
15814;SDS011;8008;50.024;8.172;2024-03-08T09:30:49;21.43;;;11.40;;
15814;SDS011;8008;50.024;8.172;2024-03-08T09:33:25;20.57;;;12.20;;
15814;SDS011;8008;50.024;8.172;2024-03-08T09:35:55;21.50;;;11.23;;
15814;SDS011;8008;50.024;8.172;2024-03-08T09:38:26;20.37;;;11.30;;
15814;SDS011;8008;50.024;8.172;2024-03-08T09:40:56;18.88;;;11.10;;
15814;SDS011;8008;50.024;8.172;2024-03-08T09:43:24;17.85;;;11.02;;
15814;SDS011;8008;50.024;8.172;2024-03-08T09:45:53;20.58;;;11.20;;
15814;SDS011;8008;50.024;8.172;2024-03-08T09:48:22;18.60;;;11.60;;
15814;SDS011;8008;50.024;8.172;2024-03-08T09:50:50;20.33;;;11.38;;
15814;SDS011;8008;50.024;8.172;2024-03-08T09:53:18;20.58;;;12.15;;
15814;SDS011;8008;50.024;8.172;2024-03-08T09:55:50;19.80;;;11.57;;
15814;SDS011;8008;50.024;8.172;2024-03-08T09:58:18;21.05;;;11.90;;
15814;SDS011;8008;50.024;8.172;2024-03-08T10:01:03;17.85;;;11.10;;
15814;SDS011;8008;50.024;8.172;2024-03-08T10:03:32;18.77;;;11.07;;
15814;SDS011;8008;50.024;8.172;2024-03-08T10:06:01;20.23;;;11.57;;
15814;SDS011;8008;50.024;8.172;2024-03-08T10:08:29;19.02;;;10.60;;
15814;SDS011;8008;50.024;8.172;2024-03-08T10:10:59;17.80;;;10.25;;
15814;SDS011;8008;50.024;8.172;2024-03-08T10:13:28;18.85;;;11.45;;
15814;SDS011;8008;50.024;8.172;2024-03-08T10:15:58;17.80;;;11.07;;
15814;SDS011;8008;50.024;8.172;2024-03-08T10:18:26;19.23;;;10.65;;
15814;SDS011;8008;50.024;8.172;2024-03-08T10:21:04;18.10;;;10.57;;
15814;SDS011;8008;50.024;8.172;2024-03-08T10:23:33;19.15;;;10.82;;
15814;SDS011;8008;50.024;8.172;2024-03-08T10:26:12;16.42;;;10.07;;
15814;SDS011;8008;50.024;8.172;2024-03-08T10:28:42;17.85;;;9.80;;
15814;SDS011;8008;50.024;8.172;2024-03-08T10:31:10;16.48;;;10.10;;
15814;SDS011;8008;50.024;8.172;2024-03-08T10:33:41;16.35;;;9.65;;
15814;SDS011;8008;50.024;8.172;2024-03-08T10:36:09;15.15;;;9.45;;
15814;SDS011;8008;50.024;8.172;2024-03-08T10:38:38;20.30;;;10.70;;
15814;SDS011;8008;50.024;8.172;2024-03-08T10:41:08;15.20;;;9.43;;
15814;SDS011;8008;50.024;8.172;2024-03-08T10:43:44;19.33;;;9.73;;
15814;SDS011;8008;50.024;8.172;2024-03-08T10:46:37;16.50;;;10.13;;
15814;SDS011;8008;50.024;8.172;2024-03-08T10:49:16;15.15;;;9.10;;
15814;SDS011;8008;50.024;8.172;2024-03-08T10:51:46;14.85;;;9.27;;
15814;SDS011;8008;50.024;8.172;2024-03-08T10:54:18;15.15;;;8.93;;
15814;SDS011;8008;50.024;8.172;2024-03-08T10:56:47;13.55;;;8.57;;
15814;SDS011;8008;50.024;8.172;2024-03-08T10:59:18;16.67;;;9.75;;
15814;SDS011;8008;50.024;8.172;2024-03-08T11:01:46;14.40;;;8.15;;
15814;SDS011;8008;50.024;8.172;2024-03-08T11:04:16;13.57;;;8.60;;
15814;SDS011;8008;50.024;8.172;2024-03-08T11:06:49;16.77;;;8.57;;
15814;SDS011;8008;50.024;8.172;2024-03-08T11:09:29;14.80;;;8.55;;
15814;SDS011;8008;50.024;8.172;2024-03-08T11:14:54;15.88;;;9.10;;
15814;SDS011;8008;50.024;8.172;2024-03-08T11:17:26;13.68;;;8.68;;
15814;SDS011;8008;50.024;8.172;2024-03-08T11:20:09;16.30;;;8.73;;
15814;SDS011;8008;50.024;8.172;2024-03-08T11:22:42;11.65;;;7.82;;
15814;SDS011;8008;50.024;8.172;2024-03-08T11:25:30;12.98;;;8.45;;
15814;SDS011;8008;50.024;8.172;2024-03-08T11:28:10;13.93;;;8.35;;
15814;SDS011;8008;50.024;8.172;2024-03-08T11:30:46;13.50;;;8.43;;
15814;SDS011;8008;50.024;8.172;2024-03-08T11:33:36;12.95;;;8.63;;
15814;SDS011;8008;50.024;8.172;2024-03-08T11:36:10;14.40;;;8.93;;
15814;SDS011;8008;50.024;8.172;2024-03-08T11:38:43;15.65;;;8.85;;
15814;SDS011;8008;50.024;8.172;2024-03-08T11:41:13;14.82;;;8.95;;
15814;SDS011;8008;50.024;8.172;2024-03-08T11:43:45;15.57;;;8.85;;
15814;SDS011;8008;50.024;8.172;2024-03-08T11:46:15;12.45;;;7.72;;
15814;SDS011;8008;50.024;8.172;2024-03-08T11:48:46;14.45;;;8.55;;
15814;SDS011;8008;50.024;8.172;2024-03-08T11:51:15;14.45;;;8.57;;
15814;SDS011;8008;50.024;8.172;2024-03-08T11:53:45;13.75;;;8.82;;
15814;SDS011;8008;50.024;8.172;2024-03-08T11:56:14;13.65;;;8.43;;
15814;SDS011;8008;50.024;8.172;2024-03-08T11:58:51;14.85;;;9.02;;
15814;SDS011;8008;50.024;8.172;2024-03-08T12:01:22;13.52;;;8.48;;
15814;SDS011;8008;50.024;8.172;2024-03-08T12:03:52;13.63;;;8.88;;
15814;SDS011;8008;50.024;8.172;2024-03-08T12:06:21;15.77;;;9.40;;
15814;SDS011;8008;50.024;8.172;2024-03-08T12:08:49;13.38;;;9.00;;
15814;SDS011;8008;50.024;8.172;2024-03-08T12:11:17;14.23;;;9.13;;
15814;SDS011;8008;50.024;8.172;2024-03-08T12:13:49;15.00;;;9.63;;
15814;SDS011;8008;50.024;8.172;2024-03-08T12:16:18;19.58;;;9.10;;
15814;SDS011;8008;50.024;8.172;2024-03-08T12:18:50;15.20;;;8.30;;
15814;SDS011;8008;50.024;8.172;2024-03-08T12:21:20;15.82;;;9.43;;
15814;SDS011;8008;50.024;8.172;2024-03-08T12:24:01;16.58;;;9.82;;
15814;SDS011;8008;50.024;8.172;2024-03-08T12:26:30;17.58;;;9.75;;
15814;SDS011;8008;50.024;8.172;2024-03-08T12:29:13;16.98;;;9.77;;
15814;SDS011;8008;50.024;8.172;2024-03-08T12:31:43;18.65;;;10.30;;
15814;SDS011;8008;50.024;8.172;2024-03-08T12:34:12;15.32;;;9.50;;
15814;SDS011;8008;50.024;8.172;2024-03-08T12:36:45;15.20;;;9.73;;
15814;SDS011;8008;50.024;8.172;2024-03-08T12:39:21;14.13;;;9.23;;
15814;SDS011;8008;50.024;8.172;2024-03-08T12:41:53;15.95;;;9.80;;
15814;SDS011;8008;50.024;8.172;2024-03-08T12:44:23;15.65;;;9.80;;
15814;SDS011;8008;50.024;8.172;2024-03-08T12:46:52;15.93;;;9.90;;
15814;SDS011;8008;50.024;8.172;2024-03-08T12:49:22;13.88;;;9.13;;
15814;SDS011;8008;50.024;8.172;2024-03-08T12:51:51;16.45;;;9.98;;
15814;SDS011;8008;50.024;8.172;2024-03-08T12:54:19;15.05;;;9.82;;
15814;SDS011;8008;50.024;8.172;2024-03-08T12:56:49;18.33;;;9.95;;
15814;SDS011;8008;50.024;8.172;2024-03-08T12:59:20;15.82;;;9.60;;
15814;SDS011;8008;50.024;8.172;2024-03-08T13:01:49;15.05;;;9.48;;
15814;SDS011;8008;50.024;8.172;2024-03-08T13:04:19;17.75;;;10.40;;
15814;SDS011;8008;50.024;8.172;2024-03-08T13:06:49;16.05;;;10.02;;
15814;SDS011;8008;50.024;8.172;2024-03-08T13:09:21;16.80;;;9.63;;
15814;SDS011;8008;50.024;8.172;2024-03-08T13:11:50;16.73;;;9.80;;
15814;SDS011;8008;50.024;8.172;2024-03-08T13:14:20;18.25;;;10.10;;
15814;SDS011;8008;50.024;8.172;2024-03-08T13:16:48;16.92;;;9.85;;
15814;SDS011;8008;50.024;8.172;2024-03-08T13:19:17;17.08;;;10.20;;
15814;SDS011;8008;50.024;8.172;2024-03-08T13:21:49;16.52;;;10.45;;
15814;SDS011;8008;50.024;8.172;2024-03-08T13:24:17;17.73;;;9.85;;
15814;SDS011;8008;50.024;8.172;2024-03-08T13:26:47;15.13;;;9.43;;
15814;SDS011;8008;50.024;8.172;2024-03-08T13:29:16;17.42;;;9.93;;
15814;SDS011;8008;50.024;8.172;2024-03-08T13:31:45;15.98;;;10.07;;
15814;SDS011;8008;50.024;8.172;2024-03-08T13:34:15;17.55;;;10.57;;
15814;SDS011;8008;50.024;8.172;2024-03-08T13:36:43;22.23;;;11.43;;
15814;SDS011;8008;50.024;8.172;2024-03-08T13:39:14;15.73;;;9.88;;
15814;SDS011;8008;50.024;8.172;2024-03-08T13:41:42;15.07;;;9.73;;
15814;SDS011;8008;50.024;8.172;2024-03-08T13:44:14;18.60;;;10.23;;
15814;SDS011;8008;50.024;8.172;2024-03-08T13:46:43;15.88;;;9.35;;
15814;SDS011;8008;50.024;8.172;2024-03-08T13:49:18;16.35;;;9.77;;
15814;SDS011;8008;50.024;8.172;2024-03-08T13:51:46;18.45;;;10.35;;
15814;SDS011;8008;50.024;8.172;2024-03-08T13:54:16;18.48;;;10.10;;
15814;SDS011;8008;50.024;8.172;2024-03-08T13:56:44;15.57;;;10.25;;
15814;SDS011;8008;50.024;8.172;2024-03-08T13:59:12;16.58;;;10.02;;
15814;SDS011;8008;50.024;8.172;2024-03-08T14:01:40;18.05;;;10.50;;
15814;SDS011;8008;50.024;8.172;2024-03-08T14:04:10;14.93;;;9.82;;
15814;SDS011;8008;50.024;8.172;2024-03-08T14:06:43;16.05;;;9.35;;
15814;SDS011;8008;50.024;8.172;2024-03-08T14:09:12;16.83;;;9.77;;
15814;SDS011;8008;50.024;8.172;2024-03-08T14:11:44;16.45;;;9.60;;
15814;SDS011;8008;50.024;8.172;2024-03-08T14:14:12;16.95;;;10.00;;
15814;SDS011;8008;50.024;8.172;2024-03-08T14:16:40;15.30;;;9.55;;
15814;SDS011;8008;50.024;8.172;2024-03-08T14:19:09;15.63;;;9.35;;
15814;SDS011;8008;50.024;8.172;2024-03-08T14:21:37;17.38;;;9.20;;
15814;SDS011;8008;50.024;8.172;2024-03-08T14:24:08;15.60;;;9.25;;
15814;SDS011;8008;50.024;8.172;2024-03-08T14:26:36;15.80;;;10.63;;
15814;SDS011;8008;50.024;8.172;2024-03-08T14:29:06;15.93;;;10.65;;
15814;SDS011;8008;50.024;8.172;2024-03-08T14:31:36;13.93;;;11.20;;
15814;SDS011;8008;50.024;8.172;2024-03-08T14:34:04;16.17;;;11.48;;
15814;SDS011;8008;50.024;8.172;2024-03-08T14:36:33;16.88;;;11.55;;
15814;SDS011;8008;50.024;8.172;2024-03-08T14:39:02;13.43;;;10.95;;
15814;SDS011;8008;50.024;8.172;2024-03-08T14:41:30;15.15;;;11.70;;
15814;SDS011;8008;50.024;8.172;2024-03-08T14:43:57;14.48;;;11.07;;
15814;SDS011;8008;50.024;8.172;2024-03-08T14:46:27;13.30;;;11.25;;
15814;SDS011;8008;50.024;8.172;2024-03-08T14:48:55;13.68;;;10.75;;
15814;SDS011;8008;50.024;8.172;2024-03-08T14:51:23;12.57;;;10.40;;
15814;SDS011;8008;50.024;8.172;2024-03-08T14:53:52;13.73;;;11.52;;
15814;SDS011;8008;50.024;8.172;2024-03-08T14:56:21;13.68;;;11.55;;
15814;SDS011;8008;50.024;8.172;2024-03-08T14:58:53;14.90;;;11.40;;
15814;SDS011;8008;50.024;8.172;2024-03-08T15:01:23;13.77;;;11.25;;
15814;SDS011;8008;50.024;8.172;2024-03-08T15:03:57;13.55;;;11.30;;
15814;SDS011;8008;50.024;8.172;2024-03-08T15:06:29;15.45;;;12.60;;
15814;SDS011;8008;50.024;8.172;2024-03-08T15:08:57;14.38;;;11.23;;
15814;SDS011;8008;50.024;8.172;2024-03-08T15:11:25;16.73;;;12.40;;
15814;SDS011;8008;50.024;8.172;2024-03-08T15:13:53;13.15;;;11.75;;
15814;SDS011;8008;50.024;8.172;2024-03-08T15:16:24;14.75;;;11.63;;
15814;SDS011;8008;50.024;8.172;2024-03-08T15:18:52;13.98;;;11.30;;
15814;SDS011;8008;50.024;8.172;2024-03-08T15:21:22;14.50;;;11.00;;
15814;SDS011;8008;50.024;8.172;2024-03-08T15:23:52;15.85;;;12.45;;
15814;SDS011;8008;50.024;8.172;2024-03-08T15:26:20;15.73;;;11.50;;
15814;SDS011;8008;50.024;8.172;2024-03-08T15:28:49;15.07;;;12.23;;
15814;SDS011;8008;50.024;8.172;2024-03-08T15:31:18;15.63;;;11.63;;
15814;SDS011;8008;50.024;8.172;2024-03-08T15:33:48;15.38;;;12.18;;
15814;SDS011;8008;50.024;8.172;2024-03-08T15:36:18;14.43;;;10.57;;
15814;SDS011;8008;50.024;8.172;2024-03-08T15:38:49;13.80;;;10.35;;
15814;SDS011;8008;50.024;8.172;2024-03-08T15:41:18;14.55;;;10.93;;
15814;SDS011;8008;50.024;8.172;2024-03-08T15:43:47;17.83;;;11.63;;
15814;SDS011;8008;50.024;8.172;2024-03-08T15:46:16;16.70;;;10.50;;
15814;SDS011;8008;50.024;8.172;2024-03-08T15:48:49;15.80;;;10.55;;
15814;SDS011;8008;50.024;8.172;2024-03-08T15:51:18;17.15;;;10.43;;
15814;SDS011;8008;50.024;8.172;2024-03-08T15:53:46;15.52;;;10.15;;
15814;SDS011;8008;50.024;8.172;2024-03-08T15:56:20;17.48;;;10.77;;
15814;SDS011;8008;50.024;8.172;2024-03-08T15:58:48;18.20;;;10.48;;
15814;SDS011;8008;50.024;8.172;2024-03-08T16:01:18;16.77;;;9.77;;
15814;SDS011;8008;50.024;8.172;2024-03-08T16:03:47;15.38;;;9.48;;
15814;SDS011;8008;50.024;8.172;2024-03-08T16:06:16;15.50;;;9.48;;
15814;SDS011;8008;50.024;8.172;2024-03-08T16:08:47;15.70;;;10.07;;
15814;SDS011;8008;50.024;8.172;2024-03-08T16:11:16;17.17;;;9.65;;
15814;SDS011;8008;50.024;8.172;2024-03-08T16:16:18;16.55;;;9.20;;
15814;SDS011;8008;50.024;8.172;2024-03-08T16:18:46;16.52;;;9.75;;
15814;SDS011;8008;50.024;8.172;2024-03-08T16:21:14;17.52;;;9.30;;
15814;SDS011;8008;50.024;8.172;2024-03-08T16:23:43;17.92;;;9.90;;
15814;SDS011;8008;50.024;8.172;2024-03-08T16:26:12;16.58;;;9.20;;
15814;SDS011;8008;50.024;8.172;2024-03-08T16:28:41;15.80;;;8.80;;
15814;SDS011;8008;50.024;8.172;2024-03-08T16:31:10;16.05;;;9.10;;
15814;SDS011;8008;50.024;8.172;2024-03-08T16:33:42;14.18;;;8.75;;
15814;SDS011;8008;50.024;8.172;2024-03-08T16:36:11;15.48;;;9.10;;
15814;SDS011;8008;50.024;8.172;2024-03-08T16:38:40;15.07;;;9.13;;
15814;SDS011;8008;50.024;8.172;2024-03-08T16:41:11;13.85;;;8.98;;
15814;SDS011;8008;50.024;8.172;2024-03-08T16:43:40;13.38;;;8.05;;
15814;SDS011;8008;50.024;8.172;2024-03-08T16:46:10;13.23;;;8.40;;
15814;SDS011;8008;50.024;8.172;2024-03-08T16:48:39;15.48;;;9.00;;
15814;SDS011;8008;50.024;8.172;2024-03-08T16:51:09;13.65;;;8.38;;
15814;SDS011;8008;50.024;8.172;2024-03-08T16:53:37;14.57;;;8.52;;
15814;SDS011;8008;50.024;8.172;2024-03-08T16:56:07;14.27;;;8.30;;
15814;SDS011;8008;50.024;8.172;2024-03-08T16:58:39;12.20;;;8.02;;
15814;SDS011;8008;50.024;8.172;2024-03-08T17:01:09;15.15;;;8.48;;
15814;SDS011;8008;50.024;8.172;2024-03-08T17:03:37;13.38;;;8.18;;
15814;SDS011;8008;50.024;8.172;2024-03-08T17:06:22;14.55;;;8.73;;
15814;SDS011;8008;50.024;8.172;2024-03-08T17:08:52;15.25;;;8.57;;
15814;SDS011;8008;50.024;8.172;2024-03-08T17:11:20;17.08;;;8.63;;
15814;SDS011;8008;50.024;8.172;2024-03-08T17:13:48;17.90;;;8.25;;
15814;SDS011;8008;50.024;8.172;2024-03-08T17:16:16;15.63;;;7.97;;
15814;SDS011;8008;50.024;8.172;2024-03-08T17:18:49;14.02;;;8.07;;
15814;SDS011;8008;50.024;8.172;2024-03-08T17:21:17;15.30;;;8.13;;
15814;SDS011;8008;50.024;8.172;2024-03-08T17:23:46;16.02;;;8.65;;
15814;SDS011;8008;50.024;8.172;2024-03-08T17:26:14;14.60;;;8.88;;
15814;SDS011;8008;50.024;8.172;2024-03-08T17:28:44;16.50;;;9.25;;
15814;SDS011;8008;50.024;8.172;2024-03-08T17:31:14;14.27;;;8.40;;
15814;SDS011;8008;50.024;8.172;2024-03-08T17:33:42;15.60;;;8.85;;
15814;SDS011;8008;50.024;8.172;2024-03-08T17:36:11;17.02;;;9.32;;
15814;SDS011;8008;50.024;8.172;2024-03-08T17:38:42;17.67;;;9.77;;
15814;SDS011;8008;50.024;8.172;2024-03-08T17:41:16;17.30;;;9.50;;
15814;SDS011;8008;50.024;8.172;2024-03-08T17:43:49;15.90;;;9.13;;
15814;SDS011;8008;50.024;8.172;2024-03-08T17:46:18;20.23;;;10.50;;
15814;SDS011;8008;50.024;8.172;2024-03-08T17:48:46;18.33;;;10.18;;
15814;SDS011;8008;50.024;8.172;2024-03-08T17:51:14;18.80;;;10.50;;
15814;SDS011;8008;50.024;8.172;2024-03-08T17:53:42;18.02;;;10.10;;
15814;SDS011;8008;50.024;8.172;2024-03-08T17:56:12;18.10;;;10.35;;
15814;SDS011;8008;50.024;8.172;2024-03-08T17:58:42;16.95;;;9.55;;
15814;SDS011;8008;50.024;8.172;2024-03-08T18:01:11;15.40;;;9.35;;
15814;SDS011;8008;50.024;8.172;2024-03-08T18:03:39;16.83;;;9.60;;
15814;SDS011;8008;50.024;8.172;2024-03-08T18:06:07;16.30;;;9.48;;
15814;SDS011;8008;50.024;8.172;2024-03-08T18:08:36;16.00;;;8.77;;
15814;SDS011;8008;50.024;8.172;2024-03-08T18:11:04;19.17;;;9.85;;
15814;SDS011;8008;50.024;8.172;2024-03-08T18:13:32;17.45;;;9.25;;
15814;SDS011;8008;50.024;8.172;2024-03-08T18:16:03;16.67;;;10.00;;
15814;SDS011;8008;50.024;8.172;2024-03-08T18:18:33;17.77;;;9.43;;
15814;SDS011;8008;50.024;8.172;2024-03-08T18:21:01;18.20;;;9.55;;
15814;SDS011;8008;50.024;8.172;2024-03-08T18:23:31;16.92;;;9.60;;
15814;SDS011;8008;50.024;8.172;2024-03-08T18:25:59;16.13;;;9.70;;
15814;SDS011;8008;50.024;8.172;2024-03-08T18:28:29;19.90;;;10.27;;
15814;SDS011;8008;50.024;8.172;2024-03-08T18:30:57;18.45;;;10.00;;
15814;SDS011;8008;50.024;8.172;2024-03-08T18:33:27;19.73;;;9.35;;
15814;SDS011;8008;50.024;8.172;2024-03-08T18:35:58;17.98;;;9.90;;
15814;SDS011;8008;50.024;8.172;2024-03-08T18:38:26;18.25;;;9.30;;
15814;SDS011;8008;50.024;8.172;2024-03-08T18:40:54;16.15;;;8.77;;
15814;SDS011;8008;50.024;8.172;2024-03-08T18:43:24;15.13;;;7.95;;
15814;SDS011;8008;50.024;8.172;2024-03-08T18:45:54;15.73;;;9.10;;
15814;SDS011;8008;50.024;8.172;2024-03-08T18:48:23;16.17;;;8.90;;
15814;SDS011;8008;50.024;8.172;2024-03-08T18:50:54;19.10;;;8.50;;
15814;SDS011;8008;50.024;8.172;2024-03-08T18:53:25;15.52;;;8.05;;
15814;SDS011;8008;50.024;8.172;2024-03-08T18:55:54;12.13;;;6.78;;
15814;SDS011;8008;50.024;8.172;2024-03-08T18:58:22;12.55;;;7.47;;
15814;SDS011;8008;50.024;8.172;2024-03-08T19:01:03;14.10;;;7.38;;
15814;SDS011;8008;50.024;8.172;2024-03-08T19:03:32;13.05;;;7.38;;